createdAt,value
2022-09-12T00:00:52.598Z,9.45
2022-09-12T00:03:19.100Z,7.43
2022-09-12T00:05:47.110Z,8.77
2022-09-12T00:08:14.516Z,8.75
2022-09-12T00:10:42.909Z,8.82
2022-09-12T00:13:10.492Z,7.97
2022-09-12T00:15:41.523Z,12.32
2022-09-12T00:18:10.472Z,7.25
2022-09-12T00:20:42.402Z,9.85
2022-09-12T00:23:08.920Z,7.28
2022-09-12T00:25:40.600Z,10.63
2022-09-12T00:28:07.052Z,7.20
2022-09-12T00:30:34.322Z,7.40
2022-09-12T00:33:00.803Z,7.85
2022-09-12T00:35:27.249Z,7.35
2022-09-12T00:37:53.678Z,9.57
2022-09-12T00:40:20.191Z,6.28
2022-09-12T00:42:46.639Z,7.10
2022-09-12T00:45:24.370Z,9.00
2022-09-12T00:47:50.868Z,5.93
2022-09-12T00:50:18.050Z,8.43
2022-09-12T00:52:49.723Z,7.25
2022-09-12T00:55:40.351Z,9.02
2022-09-12T00:58:13.631Z,8.38
2022-09-12T01:00:40.319Z,11.63
2022-09-12T01:03:14.754Z,9.73
2022-09-12T01:05:47.155Z,9.48
2022-09-12T01:08:13.564Z,9.55
2022-09-12T01:10:42.491Z,10.02
2022-09-12T01:13:10.333Z,7.95
2022-09-12T01:15:39.877Z,8.20
2022-09-12T01:18:25.097Z,10.00
2022-09-12T01:21:15.241Z,9.07
2022-09-12T01:24:26.218Z,8.25
2022-09-12T01:27:19.217Z,8.50
2022-09-12T01:30:01.671Z,8.05
2022-09-12T01:33:06.337Z,9.45
2022-09-12T01:35:44.988Z,10.60
2022-09-12T01:38:43.571Z,9.07
2022-09-12T01:41:41.084Z,11.50
2022-09-12T01:44:19.033Z,13.45
2022-09-12T01:47:16.553Z,8.25
2022-09-12T01:49:50.064Z,8.50
2022-09-12T01:52:37.687Z,8.88
2022-09-12T01:55:13.540Z,9.82
2022-09-12T01:57:48.240Z,11.27
2022-09-12T02:00:15.055Z,12.20
2022-09-12T02:02:50.681Z,9.80
2022-09-12T02:05:39.776Z,10.38
2022-09-12T02:08:20.194Z,9.05
2022-09-12T02:10:52.423Z,17.98
2022-09-12T02:13:25.832Z,7.72
2022-09-12T02:15:59.089Z,7.47
2022-09-12T02:18:27.822Z,10.70
2022-09-12T02:20:56.595Z,11.02
2022-09-12T02:23:27.574Z,7.63
2022-09-12T02:26:06.399Z,8.75
2022-09-12T02:28:38.004Z,7.25
2022-09-12T02:31:18.923Z,10.30
2022-09-12T02:34:02.048Z,8.20
2022-09-12T02:36:50.881Z,8.17
2022-09-12T02:39:20.073Z,7.32
2022-09-12T02:41:55.750Z,6.45
2022-09-12T02:44:25.267Z,8.95
2022-09-12T02:46:57.313Z,8.82
2022-09-12T02:49:24.809Z,8.13
2022-09-12T02:51:51.260Z,9.77
2022-09-12T02:54:19.140Z,7.82
2022-09-12T02:56:46.148Z,11.45
2022-09-12T02:59:18.190Z,12.13
2022-09-12T03:02:00.057Z,7.68
2022-09-12T03:05:10.954Z,9.05
2022-09-12T03:08:12.900Z,8.95
2022-09-12T03:11:25.795Z,10.93
2022-09-12T03:14:20.285Z,12.23
2022-09-12T03:16:58.019Z,12.75
2022-09-12T03:19:35.337Z,14.65
2022-09-12T03:22:21.569Z,11.25
2022-09-12T03:24:58.344Z,17.05
2022-09-12T03:27:31.284Z,11.80
2022-09-12T03:29:58.097Z,22.70
2022-09-12T03:32:51.005Z,20.63
2022-09-12T03:35:23.028Z,13.95
2022-09-12T03:37:51.012Z,13.93
2022-09-12T03:40:17.780Z,11.35
2022-09-12T03:42:44.141Z,11.15
2022-09-12T03:45:10.994Z,11.27
2022-09-12T03:47:37.525Z,11.77
2022-09-12T03:50:04.679Z,11.68
2022-09-12T03:52:31.075Z,27.05
2022-09-12T03:54:57.505Z,14.35
2022-09-12T03:57:23.898Z,17.58
2022-09-12T03:59:50.737Z,16.90
2022-09-12T04:02:17.776Z,24.95
2022-09-12T04:04:44.827Z,18.00
2022-09-12T04:07:11.610Z,13.65
2022-09-12T04:09:38.201Z,22.38
2022-09-12T04:12:05.069Z,13.27
2022-09-12T04:14:31.459Z,14.20
2022-09-12T04:16:57.973Z,12.00
2022-09-12T04:19:25.827Z,15.02
2022-09-12T04:21:52.239Z,11.23
2022-09-12T04:24:18.666Z,9.63
2022-09-12T04:26:45.045Z,14.93
2022-09-12T04:29:15.191Z,9.77
2022-09-12T04:31:41.967Z,13.75
2022-09-12T04:34:08.773Z,17.35
2022-09-12T04:36:35.647Z,14.95
2022-09-12T04:39:03.987Z,11.65
2022-09-12T04:41:33.427Z,13.48
2022-09-12T04:44:04.006Z,25.05
2022-09-12T04:46:33.474Z,11.45
2022-09-12T04:48:59.885Z,10.77
2022-09-12T04:51:35.704Z,11.73
2022-09-12T04:54:07.266Z,15.07
2022-09-12T04:56:43.371Z,16.20
2022-09-12T04:59:11.655Z,14.57
2022-09-12T05:01:38.450Z,11.60
2022-09-12T05:04:05.091Z,14.43
2022-09-12T05:06:34.983Z,12.77
2022-09-12T05:09:02.829Z,12.73
2022-09-12T05:11:53.005Z,13.65
2022-09-12T05:14:19.029Z,13.55
2022-09-12T05:16:49.191Z,12.02
2022-09-12T05:19:16.539Z,19.38
2022-09-12T05:21:42.901Z,12.50
2022-09-12T05:24:11.395Z,13.25
2022-09-12T05:26:37.840Z,26.92
2022-09-12T05:29:04.746Z,16.73
2022-09-12T05:31:31.145Z,31.63
2022-09-12T05:33:57.718Z,13.50
2022-09-12T05:36:26.713Z,25.17
2022-09-12T05:38:53.930Z,67.05
2022-09-12T05:41:25.103Z,32.58
2022-09-12T05:43:56.350Z,33.78
2022-09-12T05:46:25.771Z,27.02
2022-09-12T05:48:56.381Z,15.82
2022-09-12T05:51:28.622Z,34.80
2022-09-12T05:53:57.370Z,54.63
2022-09-12T05:56:26.000Z,103.03
2022-09-12T05:58:55.837Z,53.25
2022-09-12T06:01:22.630Z,36.47
2022-09-12T06:03:51.677Z,87.53
2022-09-12T06:06:21.584Z,86.68
2022-09-12T06:08:51.222Z,16.20
2022-09-12T06:11:20.870Z,19.38
2022-09-12T06:13:47.454Z,59.92
2022-09-12T06:16:19.061Z,16.45
2022-09-12T06:18:53.862Z,18.02
2022-09-12T06:21:21.214Z,24.88
2022-09-12T06:23:48.752Z,60.50
2022-09-12T06:26:17.697Z,23.92
2022-09-12T06:28:45.028Z,25.77
2022-09-12T06:31:14.996Z,9.85
2022-09-12T06:33:43.783Z,19.77
2022-09-12T06:36:13.680Z,15.95
2022-09-12T06:38:40.560Z,9.25
2022-09-12T06:41:10.161Z,18.50
2022-09-12T06:43:37.025Z,6.32
2022-09-12T06:46:04.370Z,5.95
2022-09-12T06:48:30.987Z,6.70
2022-09-12T06:51:02.670Z,6.45
2022-09-12T06:53:32.344Z,7.78
2022-09-12T06:56:04.680Z,15.55
2022-09-12T06:58:31.595Z,22.38
2022-09-12T07:01:05.449Z,8.30
2022-09-12T07:03:33.006Z,6.93
2022-09-12T07:06:08.088Z,11.80
2022-09-12T07:08:35.447Z,6.60
2022-09-12T07:11:28.472Z,5.82
2022-09-12T07:13:56.503Z,8.88
2022-09-12T07:16:23.678Z,9.57
2022-09-12T07:18:52.300Z,5.78
2022-09-12T07:21:19.243Z,7.93
2022-09-12T07:23:45.916Z,5.93
2022-09-12T07:26:13.936Z,5.65
2022-09-12T07:28:41.178Z,11.35
2022-09-12T07:31:12.744Z,8.38
2022-09-12T07:33:41.080Z,9.35
2022-09-12T07:36:11.618Z,7.45
2022-09-12T07:38:38.817Z,8.13
2022-09-12T07:41:23.829Z,6.63
2022-09-12T07:43:54.883Z,7.68
2022-09-12T07:46:23.853Z,6.60
2022-09-12T07:48:51.613Z,7.38
2022-09-12T07:51:18.995Z,6.63
2022-09-12T07:53:46.669Z,7.03
2022-09-12T07:56:13.571Z,8.90
2022-09-12T07:58:41.900Z,8.80
2022-09-12T08:01:13.895Z,7.75
2022-09-12T08:03:41.921Z,7.15
2022-09-12T08:06:12.083Z,8.23
2022-09-12T08:08:38.892Z,6.50
2022-09-12T08:11:08.100Z,6.93
2022-09-12T08:13:36.001Z,6.00
2022-09-12T08:16:06.044Z,6.00
2022-09-12T08:18:33.203Z,11.45
2022-09-12T08:21:05.699Z,5.22
2022-09-12T08:23:33.015Z,6.20
2022-09-12T08:26:05.952Z,9.95
2022-09-12T08:28:35.001Z,4.85
2022-09-12T08:31:07.183Z,5.35
2022-09-12T08:33:34.493Z,8.98
2022-09-12T08:36:08.699Z,6.18
2022-09-12T08:38:36.325Z,4.90
2022-09-12T08:41:11.730Z,4.50
2022-09-12T08:43:58.883Z,6.22
2022-09-12T08:46:57.191Z,6.80
2022-09-12T08:49:42.522Z,6.25
2022-09-12T08:52:17.192Z,6.30
2022-09-12T08:54:45.536Z,4.80
2022-09-12T08:57:15.100Z,5.95
2022-09-12T08:59:44.864Z,5.38
2022-09-12T09:02:34.466Z,4.10
2022-09-12T09:05:32.152Z,10.68
2022-09-12T09:08:30.877Z,8.63
2022-09-12T09:11:12.880Z,5.95
2022-09-12T09:14:14.861Z,6.18
2022-09-12T09:16:43.813Z,8.05
2022-09-12T09:19:51.105Z,7.22
2022-09-12T09:22:32.479Z,6.90
2022-09-12T09:25:05.753Z,6.78
2022-09-12T09:27:41.839Z,5.68
2022-09-12T09:30:18.122Z,9.50
2022-09-12T09:32:50.133Z,11.15
2022-09-12T09:35:19.441Z,9.55
2022-09-12T09:38:00.325Z,9.00
2022-09-12T09:40:50.657Z,7.72
2022-09-12T09:43:27.469Z,8.65
2022-09-12T09:45:54.298Z,8.40
2022-09-12T09:48:32.685Z,6.95
2022-09-12T09:51:01.863Z,5.78
2022-09-12T09:53:44.056Z,7.03
2022-09-12T09:56:24.875Z,4.75
2022-09-12T09:58:51.277Z,6.25
2022-09-12T10:01:19.247Z,7.15
2022-09-12T10:03:52.450Z,7.47
2022-09-12T10:06:34.233Z,5.03
2022-09-12T10:09:22.405Z,8.75
2022-09-12T10:11:50.433Z,7.07
2022-09-12T10:14:39.911Z,4.35
2022-09-12T10:17:24.487Z,3.72
2022-09-12T10:20:10.627Z,3.47
2022-09-12T10:22:38.642Z,4.80
2022-09-12T10:25:12.319Z,5.20
2022-09-12T10:27:38.763Z,4.75
2022-09-12T10:30:18.546Z,3.38
2022-09-12T10:32:54.188Z,3.72
2022-09-12T10:35:42.386Z,5.30
2022-09-12T10:38:21.252Z,4.22
2022-09-12T10:40:58.054Z,7.60
2022-09-12T10:43:27.735Z,2.90
2022-09-12T10:45:58.536Z,3.10
2022-09-12T10:48:32.137Z,2.28
2022-09-12T10:51:00.164Z,3.60
2022-09-12T10:53:34.737Z,4.05
2022-09-12T10:56:11.218Z,3.13
2022-09-12T10:58:55.771Z,3.33
2022-09-12T11:01:41.962Z,3.40
2022-09-12T11:04:21.838Z,3.65
2022-09-12T11:07:16.751Z,5.60
2022-09-12T11:09:49.334Z,2.95
2022-09-12T11:14:56.641Z,5.25
2022-09-12T11:17:33.492Z,4.65
2022-09-12T11:20:14.075Z,4.85
2022-09-12T11:23:15.674Z,3.53
2022-09-12T11:26:00.214Z,2.80
2022-09-12T11:29:10.881Z,2.70
2022-09-12T11:31:55.936Z,5.50
2022-09-12T11:35:03.197Z,2.13
2022-09-12T11:37:46.212Z,3.60
2022-09-12T11:40:33.094Z,2.47
2022-09-12T11:43:06.710Z,2.35
2022-09-12T11:45:42.433Z,2.63
2022-09-12T11:48:19.612Z,4.32
2022-09-12T11:50:46.204Z,4.15
2022-09-12T11:53:22.741Z,2.47
2022-09-12T11:56:02.148Z,2.90
2022-09-12T11:58:29.685Z,4.80
2022-09-12T12:01:11.485Z,2.35
2022-09-12T12:03:44.140Z,7.32
2022-09-12T12:08:51.018Z,4.65
2022-09-12T12:11:39.377Z,4.25
2022-09-12T12:14:22.470Z,2.63
2022-09-12T12:19:16.475Z,5.85
2022-09-12T12:21:48.219Z,4.97
2022-09-12T12:24:16.780Z,5.32
2022-09-12T12:27:21.558Z,4.18
2022-09-12T12:29:48.306Z,6.20
2022-09-12T12:32:17.664Z,3.47
2022-09-12T12:34:46.221Z,2.70
2022-09-12T12:37:18.694Z,3.20
2022-09-12T12:42:33.728Z,3.03
2022-09-12T12:45:02.004Z,2.85
2022-09-12T12:47:41.018Z,2.40
2022-09-12T12:50:10.919Z,4.32
2022-09-12T12:52:51.787Z,2.00
2022-09-12T12:55:39.070Z,2.88
2022-09-12T12:58:07.773Z,8.43
2022-09-12T13:00:40.270Z,3.28
2022-09-12T13:03:09.516Z,3.53
2022-09-12T13:05:48.528Z,2.38
2022-09-12T13:08:17.866Z,3.45
2022-09-12T13:11:00.825Z,2.90
2022-09-12T13:13:41.581Z,7.10
2022-09-12T13:16:11.223Z,3.67
2022-09-12T13:18:48.257Z,2.65
2022-09-12T13:21:20.002Z,2.17
2022-09-12T13:24:19.833Z,1.85
2022-09-12T13:26:47.537Z,2.00
2022-09-12T13:29:22.813Z,2.00
2022-09-12T13:31:54.116Z,2.38
2022-09-12T13:34:24.610Z,3.75
2022-09-12T13:37:38.913Z,2.15
2022-09-12T13:40:24.196Z,2.78
2022-09-12T13:43:08.873Z,3.40
2022-09-12T13:45:37.564Z,5.03
2022-09-12T13:48:05.285Z,2.28
2022-09-12T13:50:53.910Z,6.88
2022-09-12T13:53:24.112Z,2.33
2022-09-12T13:55:55.450Z,1.90
2022-09-12T13:58:34.494Z,6.10
2022-09-12T14:01:09.936Z,2.92
2022-09-12T14:04:01.267Z,4.35
2022-09-12T14:06:28.429Z,2.70
2022-09-12T14:08:58.612Z,1.63
2022-09-12T14:11:28.223Z,3.58
2022-09-12T14:13:56.238Z,3.40
2022-09-12T14:16:23.933Z,3.15
2022-09-12T14:18:54.615Z,2.58
2022-09-12T14:21:31.242Z,5.05
2022-09-12T14:23:59.497Z,2.45
2022-09-12T14:26:28.247Z,2.20
2022-09-12T14:28:54.816Z,2.72
2022-09-12T14:31:29.924Z,4.22
2022-09-12T14:34:17.863Z,3.20
2022-09-12T14:36:56.221Z,3.72
2022-09-12T14:39:39.773Z,6.15
2022-09-12T14:42:16.501Z,1.98
2022-09-12T14:44:59.064Z,2.17
2022-09-12T14:47:27.640Z,1.73
2022-09-12T14:49:54.625Z,2.70
2022-09-12T14:52:25.529Z,1.65
2022-09-12T14:55:18.672Z,1.95
2022-09-12T14:57:47.908Z,2.65
2022-09-12T15:00:14.665Z,3.47
2022-09-12T15:02:42.998Z,3.38
2022-09-12T15:05:10.646Z,4.15
2022-09-12T15:07:37.046Z,4.32
2022-09-12T15:10:26.788Z,5.38
2022-09-12T15:13:05.400Z,3.90
2022-09-12T15:15:32.691Z,5.53
2022-09-12T15:18:01.424Z,3.38
2022-09-12T15:20:32.972Z,6.65
2022-09-12T15:22:59.478Z,5.30
2022-09-12T15:25:25.864Z,6.10
2022-09-12T15:27:53.572Z,5.25
2022-09-12T15:30:19.943Z,6.13
2022-09-12T15:32:46.430Z,5.13
2022-09-12T15:35:22.529Z,4.03
2022-09-12T15:37:49.801Z,5.05
2022-09-12T15:40:16.946Z,4.80
2022-09-12T15:42:43.772Z,3.22
2022-09-12T15:45:19.729Z,4.20
2022-09-12T15:47:46.418Z,7.93
2022-09-12T15:50:13.581Z,15.07
2022-09-12T15:52:40.142Z,3.85
2022-09-12T15:55:16.021Z,3.15
2022-09-12T15:57:42.459Z,7.63
2022-09-12T16:00:09.673Z,6.57
2022-09-12T16:02:36.061Z,3.78
2022-09-12T16:05:02.456Z,3.40
2022-09-12T16:07:30.239Z,3.88
2022-09-12T16:09:56.660Z,4.70
2022-09-12T16:12:23.226Z,4.07
2022-09-12T16:14:50.092Z,4.15
2022-09-12T16:17:16.824Z,4.80
2022-09-12T16:19:43.282Z,18.63
2022-09-12T16:22:10.504Z,7.28
2022-09-12T16:24:37.743Z,4.45
2022-09-12T16:27:04.225Z,2.83
2022-09-12T16:29:31.452Z,6.63
2022-09-12T16:31:57.890Z,14.25
2022-09-12T16:34:24.270Z,3.38
2022-09-12T16:36:51.490Z,4.40
2022-09-12T16:39:17.960Z,3.38
2022-09-12T16:41:44.528Z,3.55
2022-09-12T16:44:11.531Z,4.82
2022-09-12T16:46:38.076Z,5.13
2022-09-12T16:49:06.045Z,9.82
2022-09-12T16:51:35.884Z,24.25
2022-09-12T16:54:02.967Z,6.40
2022-09-12T16:56:29.999Z,7.63
2022-09-12T16:58:56.691Z,6.75
2022-09-12T17:01:24.891Z,5.38
2022-09-12T17:03:58.406Z,7.32
2022-09-12T17:08:53.585Z,6.03
2022-09-12T17:11:22.539Z,5.57
2022-09-12T17:14:04.493Z,4.53
2022-09-12T17:16:33.203Z,10.75
2022-09-12T17:18:59.622Z,9.05
2022-09-12T17:21:26.192Z,4.80
2022-09-12T17:23:52.664Z,6.05
2022-09-12T17:26:19.085Z,4.40
2022-09-12T17:28:45.474Z,5.07
2022-09-12T17:31:14.505Z,6.70
2022-09-12T17:33:41.573Z,4.43
2022-09-12T17:36:15.075Z,4.55
2022-09-12T17:41:15.025Z,5.57
2022-09-12T17:43:41.703Z,6.32
2022-09-12T17:46:08.475Z,5.35
2022-09-12T17:48:35.304Z,4.05
2022-09-12T17:51:13.512Z,5.90
2022-09-12T17:53:40.966Z,4.00
2022-09-12T17:56:07.446Z,5.38
2022-09-12T17:58:34.749Z,5.65
2022-09-12T18:01:30.971Z,4.90
2022-09-12T18:04:00.584Z,10.48
2022-09-12T18:06:28.532Z,16.83
2022-09-12T18:08:54.993Z,12.10
2022-09-12T18:11:21.545Z,8.90
2022-09-12T18:13:48.073Z,6.20
2022-09-12T18:16:14.678Z,5.30
2022-09-12T18:18:41.230Z,5.53
2022-09-12T18:21:10.486Z,5.15
2022-09-12T18:23:37.235Z,5.43
2022-09-12T18:26:06.397Z,4.82
2022-09-12T18:28:34.354Z,6.18
2022-09-12T18:31:00.885Z,6.60
2022-09-12T18:33:27.358Z,8.27
2022-09-12T18:35:54.016Z,6.63
2022-09-12T18:38:20.651Z,6.15
2022-09-12T18:40:47.210Z,5.78
2022-09-12T18:43:14.400Z,6.40
2022-09-12T18:45:40.828Z,5.82
2022-09-12T18:48:07.245Z,5.53
2022-09-12T18:50:33.656Z,5.22
2022-09-12T18:53:00.171Z,6.72
2022-09-12T18:55:26.802Z,5.90
2022-09-12T18:57:55.330Z,7.95
2022-09-12T19:00:21.703Z,6.47
2022-09-12T19:02:48.176Z,6.68
2022-09-12T19:05:14.697Z,8.70
2022-09-12T19:07:41.214Z,6.60
2022-09-12T19:10:08.884Z,10.18
2022-09-12T19:12:35.317Z,7.20
2022-09-12T19:15:01.781Z,7.10
2022-09-12T19:17:28.254Z,6.25
2022-09-12T19:19:55.460Z,8.70
2022-09-12T19:22:22.218Z,5.47
2022-09-12T19:24:48.591Z,6.18
2022-09-12T19:27:16.081Z,5.50
2022-09-12T19:29:42.525Z,5.57
2022-09-12T19:32:09.106Z,5.43
2022-09-12T19:34:35.625Z,7.85
2022-09-12T19:37:02.123Z,6.15
2022-09-12T19:39:28.625Z,9.68
2022-09-12T19:41:55.050Z,6.65
2022-09-12T19:44:21.582Z,7.35
2022-09-12T19:46:48.056Z,5.25
2022-09-12T19:49:14.687Z,7.32
2022-09-12T19:51:41.563Z,6.20
2022-09-12T19:54:08.357Z,4.28
2022-09-12T19:56:35.247Z,3.97
2022-09-12T19:59:01.701Z,9.35
2022-09-12T20:01:28.677Z,4.60
2022-09-12T20:03:56.732Z,7.55
2022-09-12T20:06:23.805Z,5.30
2022-09-12T20:08:51.013Z,4.80
2022-09-12T20:11:19.550Z,5.18
2022-09-12T20:13:46.789Z,4.68
2022-09-12T20:16:29.058Z,6.97
2022-09-12T20:19:01.825Z,5.10
2022-09-12T20:21:35.768Z,7.15
2022-09-12T20:24:04.943Z,7.05
2022-09-12T20:26:31.933Z,5.95
2022-09-12T20:28:58.558Z,6.35
2022-09-12T20:31:24.997Z,7.28
2022-09-12T20:33:52.051Z,5.47
2022-09-12T20:36:20.168Z,6.13
2022-09-12T20:38:56.832Z,5.03
2022-09-12T20:41:24.757Z,6.47
2022-09-12T20:43:52.224Z,6.28
2022-09-12T20:46:21.801Z,5.57
2022-09-12T20:48:49.660Z,8.25
2022-09-12T20:51:16.690Z,4.13
2022-09-12T20:53:43.218Z,7.60
2022-09-12T20:56:09.987Z,6.63
2022-09-12T20:58:39.381Z,10.15
2022-09-12T21:01:14.134Z,7.70
2022-09-12T21:03:41.977Z,7.22
2022-09-12T21:06:09.971Z,6.72
2022-09-12T21:08:37.326Z,4.88
2022-09-12T21:11:07.624Z,6.72
2022-09-12T21:13:34.390Z,8.35
2022-09-12T21:16:11.216Z,6.22
2022-09-12T21:18:38.244Z,5.05
2022-09-12T21:21:05.937Z,7.07
2022-09-12T21:23:33.733Z,5.15
2022-09-12T21:26:00.541Z,6.18
2022-09-12T21:28:27.098Z,5.03
2022-09-12T21:30:53.678Z,5.90
2022-09-12T21:33:21.362Z,4.80
2022-09-12T21:35:48.061Z,10.70
2022-09-12T21:38:15.543Z,4.18
2022-09-12T21:40:42.121Z,5.03
2022-09-12T21:43:12.557Z,9.32
2022-09-12T21:45:39.674Z,4.82
2022-09-12T21:48:06.104Z,5.93
2022-09-12T21:50:32.519Z,7.28
2022-09-12T21:52:58.949Z,4.75
2022-09-12T21:55:27.196Z,6.38
2022-09-12T21:57:54.741Z,7.72
2022-09-12T22:00:21.346Z,6.22
2022-09-12T22:02:48.320Z,4.35
2022-09-12T22:05:15.265Z,7.65
2022-09-12T22:07:41.815Z,6.53
2022-09-12T22:10:08.829Z,5.63
2022-09-12T22:12:35.196Z,4.43
2022-09-12T22:15:12.828Z,6.63
2022-09-12T22:17:48.039Z,5.53
2022-09-12T22:20:14.514Z,5.85
2022-09-12T22:23:00.590Z,12.02
2022-09-12T22:25:27.132Z,5.75
2022-09-12T22:27:54.593Z,7.85
2022-09-12T22:30:22.741Z,8.10
2022-09-12T22:32:51.206Z,8.80
2022-09-12T22:35:18.574Z,7.68
2022-09-12T22:37:46.899Z,7.10
2022-09-12T22:40:13.761Z,7.78
2022-09-12T22:42:40.446Z,8.75
2022-09-12T22:45:07.734Z,6.97
2022-09-12T22:47:34.145Z,6.78
2022-09-12T22:50:00.537Z,7.13
2022-09-12T22:52:26.903Z,7.57
2022-09-12T22:54:53.529Z,9.43
2022-09-12T22:57:19.908Z,7.10
2022-09-12T22:59:46.599Z,7.72
2022-09-12T23:02:13.042Z,8.35
2022-09-12T23:04:40.002Z,8.23
2022-09-12T23:07:06.655Z,6.35
2022-09-12T23:09:35.426Z,6.15
2022-09-12T23:12:02.386Z,7.35
2022-09-12T23:14:28.773Z,6.28
2022-09-12T23:16:55.224Z,9.38
2022-09-12T23:19:21.642Z,9.95
2022-09-12T23:21:48.288Z,7.35
2022-09-12T23:24:14.857Z,6.53
2022-09-12T23:26:41.216Z,7.95
2022-09-12T23:29:07.672Z,7.40
2022-09-12T23:31:34.152Z,10.30
2022-09-12T23:34:04.083Z,9.43
2022-09-12T23:36:30.632Z,7.28
2022-09-12T23:38:57.226Z,7.88
2022-09-12T23:41:24.117Z,7.65
2022-09-12T23:43:50.690Z,6.50
2022-09-12T23:46:18.535Z,9.27
2022-09-12T23:48:45.321Z,7.38
2022-09-12T23:51:12.193Z,5.55
2022-09-12T23:53:39.038Z,7.95
2022-09-12T23:56:05.933Z,11.13
2022-09-12T23:58:32.548Z,8.05
